sensor_id;sensor_type;location;lat;lon;timestamp;temperature;humidity
65864;SHT30;52639;51.180;20.460;2022-10-16T00:02:42;13.27;75.61
65864;SHT30;52639;51.180;20.460;2022-10-16T00:06:46;13.39;75.37
65864;SHT30;52639;51.180;20.460;2022-10-16T00:10:48;13.34;75.63
65864;SHT30;52639;51.180;20.460;2022-10-16T00:14:51;13.30;75.79
65864;SHT30;52639;51.180;20.460;2022-10-16T00:18:54;13.36;75.71
65864;SHT30;52639;51.180;20.460;2022-10-16T00:22:58;13.42;75.59
65864;SHT30;52639;51.180;20.460;2022-10-16T00:27:00;13.43;75.63
65864;SHT30;52639;51.180;20.460;2022-10-16T00:31:04;13.46;75.61
65864;SHT30;52639;51.180;20.460;2022-10-16T00:35:07;13.47;75.56
65864;SHT30;52639;51.180;20.460;2022-10-16T00:39:11;13.47;75.70
65864;SHT30;52639;51.180;20.460;2022-10-16T00:43:31;13.44;75.72
65864;SHT30;52639;51.180;20.460;2022-10-16T00:47:37;13.51;75.53
65864;SHT30;52639;51.180;20.460;2022-10-16T00:51:41;13.56;75.38
65864;SHT30;52639;51.180;20.460;2022-10-16T00:55:46;13.53;75.38
65864;SHT30;52639;51.180;20.460;2022-10-16T00:59:48;13.54;75.36
65864;SHT30;52639;51.180;20.460;2022-10-16T01:03:51;13.54;75.40
65864;SHT30;52639;51.180;20.460;2022-10-16T01:07:56;13.56;75.29
65864;SHT30;52639;51.180;20.460;2022-10-16T01:12:08;13.51;75.40
65864;SHT30;52639;51.180;20.460;2022-10-16T01:16:15;13.57;75.13
65864;SHT30;52639;51.180;20.460;2022-10-16T01:20:27;13.48;75.35
65864;SHT30;52639;51.180;20.460;2022-10-16T01:24:36;13.47;75.48
65864;SHT30;52639;51.180;20.460;2022-10-16T01:28:44;13.47;75.30
65864;SHT30;52639;51.180;20.460;2022-10-16T01:32:50;13.47;75.22
65864;SHT30;52639;51.180;20.460;2022-10-16T01:36:58;13.47;75.28
65864;SHT30;52639;51.180;20.460;2022-10-16T01:41:08;13.37;75.49
65864;SHT30;52639;51.180;20.460;2022-10-16T01:45:14;13.39;75.48
65864;SHT30;52639;51.180;20.460;2022-10-16T01:49:20;13.30;75.70
65864;SHT30;52639;51.180;20.460;2022-10-16T01:53:24;13.17;76.01
65864;SHT30;52639;51.180;20.460;2022-10-16T01:57:29;13.13;76.02
65864;SHT30;52639;51.180;20.460;2022-10-16T02:01:37;12.99;76.15
65864;SHT30;52639;51.180;20.460;2022-10-16T02:05:44;12.83;76.54
65864;SHT30;52639;51.180;20.460;2022-10-16T02:09:47;12.73;76.55
65864;SHT30;52639;51.180;20.460;2022-10-16T02:13:55;12.52;76.98
65864;SHT30;52639;51.180;20.460;2022-10-16T02:18:01;12.34;77.08
65864;SHT30;52639;51.180;20.460;2022-10-16T02:22:04;12.27;77.55
65864;SHT30;52639;51.180;20.460;2022-10-16T02:26:13;12.18;77.37
65864;SHT30;52639;51.180;20.460;2022-10-16T02:30:21;11.91;77.74
65864;SHT30;52639;51.180;20.460;2022-10-16T02:34:28;11.73;77.86
65864;SHT30;52639;51.180;20.460;2022-10-16T02:38:32;11.54;78.08
65864;SHT30;52639;51.180;20.460;2022-10-16T02:42:37;11.36;78.38
65864;SHT30;52639;51.180;20.460;2022-10-16T02:46:40;11.13;78.77
65864;SHT30;52639;51.180;20.460;2022-10-16T02:50:44;11.12;78.58
65864;SHT30;52639;51.180;20.460;2022-10-16T02:54:46;10.89;79.06
65864;SHT30;52639;51.180;20.460;2022-10-16T02:58:49;10.96;78.95
65864;SHT30;52639;51.180;20.460;2022-10-16T03:02:51;10.71;79.12
65864;SHT30;52639;51.180;20.460;2022-10-16T03:06:55;10.86;79.06
65864;SHT30;52639;51.180;20.460;2022-10-16T03:10:57;10.65;79.62
65864;SHT30;52639;51.180;20.460;2022-10-16T03:15:00;10.64;79.26
65864;SHT30;52639;51.180;20.460;2022-10-16T03:19:03;10.61;81.17
65864;SHT30;52639;51.180;20.460;2022-10-16T03:23:07;10.61;80.03
65864;SHT30;52639;51.180;20.460;2022-10-16T03:27:09;10.56;81.12
65864;SHT30;52639;51.180;20.460;2022-10-16T03:31:12;10.59;79.91
65864;SHT30;52639;51.180;20.460;2022-10-16T03:35:14;10.41;80.04
65864;SHT30;52639;51.180;20.460;2022-10-16T03:39:18;10.37;80.85
65864;SHT30;52639;51.180;20.460;2022-10-16T03:43:21;10.22;80.52
65864;SHT30;52639;51.180;20.460;2022-10-16T03:47:23;10.28;81.53
65864;SHT30;52639;51.180;20.460;2022-10-16T03:51:26;10.48;82.16
65864;SHT30;52639;51.180;20.460;2022-10-16T03:55:30;10.33;81.33
65864;SHT30;52639;51.180;20.460;2022-10-16T03:59:32;10.42;81.48
65864;SHT30;52639;51.180;20.460;2022-10-16T04:03:34;10.22;81.54
65864;SHT30;52639;51.180;20.460;2022-10-16T04:07:37;10.13;81.95
65864;SHT30;52639;51.180;20.460;2022-10-16T04:11:41;10.15;82.31
65864;SHT30;52639;51.180;20.460;2022-10-16T04:15:44;10.24;83.30
65864;SHT30;52639;51.180;20.460;2022-10-16T04:19:47;10.21;83.86
65864;SHT30;52639;51.180;20.460;2022-10-16T04:23:49;10.08;81.95
65864;SHT30;52639;51.180;20.460;2022-10-16T04:27:54;9.93;81.90
65864;SHT30;52639;51.180;20.460;2022-10-16T04:31:56;9.94;82.57
65864;SHT30;52639;51.180;20.460;2022-10-16T04:35:59;9.93;82.55
65864;SHT30;52639;51.180;20.460;2022-10-16T04:40:02;9.74;82.43
65864;SHT30;52639;51.180;20.460;2022-10-16T04:44:07;9.97;82.47
65864;SHT30;52639;51.180;20.460;2022-10-16T04:48:09;10.07;82.01
65864;SHT30;52639;51.180;20.460;2022-10-16T04:52:12;10.21;84.76
65864;SHT30;52639;51.180;20.460;2022-10-16T04:56:14;10.27;83.45
65864;SHT30;52639;51.180;20.460;2022-10-16T05:00:18;10.22;82.76
65864;SHT30;52639;51.180;20.460;2022-10-16T05:04:21;10.20;82.95
65864;SHT30;52639;51.180;20.460;2022-10-16T05:08:23;10.40;84.65
65864;SHT30;52639;51.180;20.460;2022-10-16T05:12:26;10.34;82.41
65864;SHT30;52639;51.180;20.460;2022-10-16T05:16:30;10.51;82.00
65864;SHT30;52639;51.180;20.460;2022-10-16T05:20:33;10.54;81.59
65864;SHT30;52639;51.180;20.460;2022-10-16T05:24:36;10.64;82.49
65864;SHT30;52639;51.180;20.460;2022-10-16T05:28:38;10.68;81.44
65864;SHT30;52639;51.180;20.460;2022-10-16T05:32:46;10.73;81.95
65864;SHT30;52639;51.180;20.460;2022-10-16T05:36:48;10.85;82.74
65864;SHT30;52639;51.180;20.460;2022-10-16T05:40:52;10.99;82.68
65864;SHT30;52639;51.180;20.460;2022-10-16T05:44:55;11.12;81.18
65864;SHT30;52639;51.180;20.460;2022-10-16T05:48:59;11.20;82.02
65864;SHT30;52639;51.180;20.460;2022-10-16T05:53:01;11.36;81.53
65864;SHT30;52639;51.180;20.460;2022-10-16T05:57:04;11.56;82.14
65864;SHT30;52639;51.180;20.460;2022-10-16T06:01:09;11.97;80.50
65864;SHT30;52639;51.180;20.460;2022-10-16T06:05:14;12.55;78.93
65864;SHT30;52639;51.180;20.460;2022-10-16T06:09:16;13.37;77.98
65864;SHT30;52639;51.180;20.460;2022-10-16T06:13:19;14.36;76.14
65864;SHT30;52639;51.180;20.460;2022-10-16T06:17:21;15.19;74.89
65864;SHT30;52639;51.180;20.460;2022-10-16T06:21:26;14.76;75.97
65864;SHT30;52639;51.180;20.460;2022-10-16T06:25:29;14.65;76.70
65864;SHT30;52639;51.180;20.460;2022-10-16T06:29:31;15.43;75.72
65864;SHT30;52639;51.180;20.460;2022-10-16T06:33:34;16.23;73.68
65864;SHT30;52639;51.180;20.460;2022-10-16T06:37:38;18.64;68.02
65864;SHT30;52639;51.180;20.460;2022-10-16T06:41:40;20.37;65.65
65864;SHT30;52639;51.180;20.460;2022-10-16T06:45:48;20.29;67.48
65864;SHT30;52639;51.180;20.460;2022-10-16T06:50:58;19.00;71.02
65864;SHT30;52639;51.180;20.460;2022-10-16T06:56:08;17.68;67.43
65864;SHT30;52639;51.180;20.460;2022-10-16T07:16:15;16.66;73.72
65864;SHT30;52639;51.180;20.460;2022-10-16T07:20:19;16.06;74.61
65864;SHT30;52639;51.180;20.460;2022-10-16T07:24:21;16.39;72.48
65864;SHT30;52639;51.180;20.460;2022-10-16T07:28:24;16.87;71.04
65864;SHT30;52639;51.180;20.460;2022-10-16T07:32:28;18.33;67.94
65864;SHT30;52639;51.180;20.460;2022-10-16T07:36:31;17.98;69.10
65864;SHT30;52639;51.180;20.460;2022-10-16T07:40:33;17.92;68.95
65864;SHT30;52639;51.180;20.460;2022-10-16T07:44:36;17.88;69.58
65864;SHT30;52639;51.180;20.460;2022-10-16T07:48:40;18.91;66.86
65864;SHT30;52639;51.180;20.460;2022-10-16T07:52:46;18.69;67.59
65864;SHT30;52639;51.180;20.460;2022-10-16T07:56:49;18.25;68.55
65864;SHT30;52639;51.180;20.460;2022-10-16T08:00:51;17.89;68.85
65864;SHT30;52639;51.180;20.460;2022-10-16T08:04:55;17.31;70.73
65864;SHT30;52639;51.180;20.460;2022-10-16T08:08:57;17.20;70.94
65864;SHT30;52639;51.180;20.460;2022-10-16T08:13:00;17.30;69.96
65864;SHT30;52639;51.180;20.460;2022-10-16T08:17:03;16.99;71.22
65864;SHT30;52639;51.180;20.460;2022-10-16T08:21:12;16.93;70.96
65864;SHT30;52639;51.180;20.460;2022-10-16T08:25:15;16.87;70.83
65864;SHT30;52639;51.180;20.460;2022-10-16T08:29:17;16.93;70.83
65864;SHT30;52639;51.180;20.460;2022-10-16T08:33:20;17.02;70.64
65864;SHT30;52639;51.180;20.460;2022-10-16T08:37:23;17.10;70.49
65864;SHT30;52639;51.180;20.460;2022-10-16T08:41:50;17.48;69.63
65864;SHT30;52639;51.180;20.460;2022-10-16T08:46:21;17.79;68.71
65864;SHT30;52639;51.180;20.460;2022-10-16T08:50:28;17.99;68.49
65864;SHT30;52639;51.180;20.460;2022-10-16T08:54:35;18.36;68.10
65864;SHT30;52639;51.180;20.460;2022-10-16T08:58:41;18.63;67.17
65864;SHT30;52639;51.180;20.460;2022-10-16T09:02:49;18.84;67.36
65864;SHT30;52639;51.180;20.460;2022-10-16T09:06:55;19.14;66.76
65864;SHT30;52639;51.180;20.460;2022-10-16T09:11:05;19.69;65.77
65864;SHT30;52639;51.180;20.460;2022-10-16T09:15:20;19.57;66.37
65864;SHT30;52639;51.180;20.460;2022-10-16T09:19:31;19.69;65.88
65864;SHT30;52639;51.180;20.460;2022-10-16T09:23:37;20.56;62.46
65864;SHT30;52639;51.180;20.460;2022-10-16T09:27:42;21.05;63.00
65864;SHT30;52639;51.180;20.460;2022-10-16T09:31:47;22.22;60.54
65864;SHT30;52639;51.180;20.460;2022-10-16T09:35:50;23.89;57.19
65864;SHT30;52639;51.180;20.460;2022-10-16T09:39:54;22.26;61.82
65864;SHT30;52639;51.180;20.460;2022-10-16T09:44:00;21.92;61.60
65864;SHT30;52639;51.180;20.460;2022-10-16T09:48:10;21.75;61.89
65864;SHT30;52639;51.180;20.460;2022-10-16T09:52:14;21.59;62.67
65864;SHT30;52639;51.180;20.460;2022-10-16T09:56:23;21.14;63.34
65864;SHT30;52639;51.180;20.460;2022-10-16T10:00:27;21.30;62.69
65864;SHT30;52639;51.180;20.460;2022-10-16T10:04:39;20.77;63.71
65864;SHT30;52639;51.180;20.460;2022-10-16T10:08:56;20.77;63.69
65864;SHT30;52639;51.180;20.460;2022-10-16T10:12:59;20.33;63.63
65864;SHT30;52639;51.180;20.460;2022-10-16T10:17:15;20.54;63.45
65864;SHT30;52639;51.180;20.460;2022-10-16T10:21:18;21.00;61.66
65864;SHT30;52639;51.180;20.460;2022-10-16T10:25:38;20.80;60.65
65864;SHT30;52639;51.180;20.460;2022-10-16T10:29:49;21.07;62.40
65864;SHT30;52639;51.180;20.460;2022-10-16T10:34:02;20.83;63.33
65864;SHT30;52639;51.180;20.460;2022-10-16T10:38:17;20.54;64.12
65864;SHT30;52639;51.180;20.460;2022-10-16T10:42:25;20.36;64.21
65864;SHT30;52639;51.180;20.460;2022-10-16T10:46:34;20.49;64.14
65864;SHT30;52639;51.180;20.460;2022-10-16T10:50:43;20.57;63.74
65864;SHT30;52639;51.180;20.460;2022-10-16T10:54:51;20.91;63.37
65864;SHT30;52639;51.180;20.460;2022-10-16T10:59:15;21.44;62.42
65864;SHT30;52639;51.180;20.460;2022-10-16T11:03:35;21.86;61.60
65864;SHT30;52639;51.180;20.460;2022-10-16T11:07:47;21.71;61.97
65864;SHT30;52639;51.180;20.460;2022-10-16T11:11:54;21.99;61.77
65864;SHT30;52639;51.180;20.460;2022-10-16T11:16:00;21.98;61.97
65864;SHT30;52639;51.180;20.460;2022-10-16T11:20:13;21.57;63.11
65864;SHT30;52639;51.180;20.460;2022-10-16T11:24:21;21.47;63.21
65864;SHT30;52639;51.180;20.460;2022-10-16T11:28:29;21.55;62.93
65864;SHT30;52639;51.180;20.460;2022-10-16T11:32:35;21.51;62.96
65864;SHT30;52639;51.180;20.460;2022-10-16T11:36:45;21.32;63.25
65864;SHT30;52639;51.180;20.460;2022-10-16T11:40:54;21.21;63.79
65864;SHT30;52639;51.180;20.460;2022-10-16T11:45:03;21.23;63.44
65864;SHT30;52639;51.180;20.460;2022-10-16T11:49:10;21.18;63.56
65864;SHT30;52639;51.180;20.460;2022-10-16T11:53:18;21.35;63.12
65864;SHT30;52639;51.180;20.460;2022-10-16T11:57:29;21.59;62.51
65864;SHT30;52639;51.180;20.460;2022-10-16T12:01:38;21.88;62.17
65864;SHT30;52639;51.180;20.460;2022-10-16T12:05:55;21.61;62.59
65864;SHT30;52639;51.180;20.460;2022-10-16T12:10:10;21.24;63.15
65864;SHT30;52639;51.180;20.460;2022-10-16T12:14:32;21.25;62.99
65864;SHT30;52639;51.180;20.460;2022-10-16T12:18:35;21.12;63.02
65864;SHT30;52639;51.180;20.460;2022-10-16T12:22:42;21.42;62.80
65864;SHT30;52639;51.180;20.460;2022-10-16T12:26:52;21.78;62.32
65864;SHT30;52639;51.180;20.460;2022-10-16T12:30:58;21.95;62.28
65864;SHT30;52639;51.180;20.460;2022-10-16T12:35:02;21.75;62.83
65864;SHT30;52639;51.180;20.460;2022-10-16T12:39:05;21.34;63.70
65864;SHT30;52639;51.180;20.460;2022-10-16T12:43:13;21.03;64.60
65864;SHT30;52639;51.180;20.460;2022-10-16T12:47:46;20.84;64.97
65864;SHT30;52639;51.180;20.460;2022-10-16T12:51:49;20.50;65.52
65864;SHT30;52639;51.180;20.460;2022-10-16T12:56:04;20.18;65.94
65864;SHT30;52639;51.180;20.460;2022-10-16T13:00:16;20.06;66.12
65864;SHT30;52639;51.180;20.460;2022-10-16T13:04:50;20.08;66.06
65864;SHT30;52639;51.180;20.460;2022-10-16T13:09:12;20.29;65.64
65864;SHT30;52639;51.180;20.460;2022-10-16T13:17:52;20.06;66.40
65864;SHT30;52639;51.180;20.460;2022-10-16T13:22:05;19.86;67.04
65864;SHT30;52639;51.180;20.460;2022-10-16T13:26:19;19.66;67.35
65864;SHT30;52639;51.180;20.460;2022-10-16T13:30:26;19.59;67.59
65864;SHT30;52639;51.180;20.460;2022-10-16T13:34:30;19.55;67.61
65864;SHT30;52639;51.180;20.460;2022-10-16T13:38:35;19.64;67.43
65864;SHT30;52639;51.180;20.460;2022-10-16T13:42:38;19.62;67.46
65864;SHT30;52639;51.180;20.460;2022-10-16T13:46:40;19.68;67.43
65864;SHT30;52639;51.180;20.460;2022-10-16T13:50:43;19.75;67.34
65864;SHT30;52639;51.180;20.460;2022-10-16T13:54:46;19.81;67.36
65864;SHT30;52639;51.180;20.460;2022-10-16T13:58:59;19.78;67.45
65864;SHT30;52639;51.180;20.460;2022-10-16T14:03:03;19.72;67.61
65864;SHT30;52639;51.180;20.460;2022-10-16T14:07:13;19.59;67.93
65864;SHT30;52639;51.180;20.460;2022-10-16T14:11:23;19.53;68.27
65864;SHT30;52639;51.180;20.460;2022-10-16T14:15:26;19.45;68.47
65864;SHT30;52639;51.180;20.460;2022-10-16T14:19:30;19.28;68.84
65864;SHT30;52639;51.180;20.460;2022-10-16T14:23:35;19.24;68.92
65864;SHT30;52639;51.180;20.460;2022-10-16T14:27:39;19.23;68.98
65864;SHT30;52639;51.180;20.460;2022-10-16T14:31:42;19.08;69.15
65864;SHT30;52639;51.180;20.460;2022-10-16T14:35:44;18.77;69.93
65864;SHT30;52639;51.180;20.460;2022-10-16T14:39:49;18.49;70.79
65864;SHT30;52639;51.180;20.460;2022-10-16T14:43:56;18.22;71.17
65864;SHT30;52639;51.180;20.460;2022-10-16T14:48:04;17.94;71.66
65864;SHT30;52639;51.180;20.460;2022-10-16T14:52:12;17.78;71.83
65864;SHT30;52639;51.180;20.460;2022-10-16T14:56:18;17.51;72.16
65864;SHT30;52639;51.180;20.460;2022-10-16T15:00:24;17.35;72.48
65864;SHT30;52639;51.180;20.460;2022-10-16T15:04:27;17.17;72.71
65864;SHT30;52639;51.180;20.460;2022-10-16T15:08:29;16.99;73.31
65864;SHT30;52639;51.180;20.460;2022-10-16T15:12:33;16.77;73.37
65864;SHT30;52639;51.180;20.460;2022-10-16T15:16:37;16.33;74.44
65864;SHT30;52639;51.180;20.460;2022-10-16T15:20:39;16.08;74.84
65864;SHT30;52639;51.180;20.460;2022-10-16T15:24:42;15.98;74.99
65864;SHT30;52639;51.180;20.460;2022-10-16T15:28:45;15.94;75.01
65864;SHT30;52639;51.180;20.460;2022-10-16T15:32:49;15.80;75.23
65864;SHT30;52639;51.180;20.460;2022-10-16T15:36:52;15.72;75.27
65864;SHT30;52639;51.180;20.460;2022-10-16T15:40:56;15.71;75.34
65864;SHT30;52639;51.180;20.460;2022-10-16T15:44:59;15.78;75.68
65864;SHT30;52639;51.180;20.460;2022-10-16T15:49:03;15.88;75.28
65864;SHT30;52639;51.180;20.460;2022-10-16T15:53:05;15.80;75.54
65864;SHT30;52639;51.180;20.460;2022-10-16T15:57:08;15.72;75.57
65864;SHT30;52639;51.180;20.460;2022-10-16T16:01:10;15.82;76.06
65864;SHT30;52639;51.180;20.460;2022-10-16T16:05:14;15.78;75.82
65864;SHT30;52639;51.180;20.460;2022-10-16T16:09:17;15.85;75.80
65864;SHT30;52639;51.180;20.460;2022-10-16T16:13:19;15.80;75.77
65864;SHT30;52639;51.180;20.460;2022-10-16T16:17:22;15.75;75.90
65864;SHT30;52639;51.180;20.460;2022-10-16T16:21:26;15.75;75.75
65864;SHT30;52639;51.180;20.460;2022-10-16T16:25:29;15.74;75.95
65864;SHT30;52639;51.180;20.460;2022-10-16T16:29:31;15.72;76.14
65864;SHT30;52639;51.180;20.460;2022-10-16T16:33:34;15.51;76.92
65864;SHT30;52639;51.180;20.460;2022-10-16T16:37:38;15.61;76.34
65864;SHT30;52639;51.180;20.460;2022-10-16T16:41:41;15.53;76.46
65864;SHT30;52639;51.180;20.460;2022-10-16T16:45:44;15.28;77.09
65864;SHT30;52639;51.180;20.460;2022-10-16T16:49:46;15.13;77.41
65864;SHT30;52639;51.180;20.460;2022-10-16T16:53:52;15.22;77.35
65864;SHT30;52639;51.180;20.460;2022-10-16T16:57:54;15.13;77.38
65864;SHT30;52639;51.180;20.460;2022-10-16T17:01:57;14.90;77.82
65864;SHT30;52639;51.180;20.460;2022-10-16T17:06:02;14.48;78.82
65864;SHT30;52639;51.180;20.460;2022-10-16T17:10:07;14.29;79.28
65864;SHT30;52639;51.180;20.460;2022-10-16T17:14:11;14.02;79.63
65864;SHT30;52639;51.180;20.460;2022-10-16T17:18:15;13.81;80.04
65864;SHT30;52639;51.180;20.460;2022-10-16T17:22:18;13.73;80.14
65864;SHT30;52639;51.180;20.460;2022-10-16T17:26:23;13.56;80.50
65864;SHT30;52639;51.180;20.460;2022-10-16T17:30:26;13.48;80.60
65864;SHT30;52639;51.180;20.460;2022-10-16T17:34:29;13.33;80.67
65864;SHT30;52639;51.180;20.460;2022-10-16T17:38:34;13.10;81.17
65864;SHT30;52639;51.180;20.460;2022-10-16T17:42:39;12.88;81.50
65864;SHT30;52639;51.180;20.460;2022-10-16T17:46:43;12.63;82.07
65864;SHT30;52639;51.180;20.460;2022-10-16T17:50:45;12.66;82.02
65864;SHT30;52639;51.180;20.460;2022-10-16T17:54:49;12.62;82.01
65864;SHT30;52639;51.180;20.460;2022-10-16T17:58:59;12.37;82.27
65864;SHT30;52639;51.180;20.460;2022-10-16T18:03:10;12.28;82.59
65864;SHT30;52639;51.180;20.460;2022-10-16T18:07:12;12.24;82.60
65864;SHT30;52639;51.180;20.460;2022-10-16T18:11:16;11.98;83.00
65864;SHT30;52639;51.180;20.460;2022-10-16T18:15:20;11.98;82.81
65864;SHT30;52639;51.180;20.460;2022-10-16T18:19:24;11.80;83.29
65864;SHT30;52639;51.180;20.460;2022-10-16T18:23:28;11.74;83.43
65864;SHT30;52639;51.180;20.460;2022-10-16T18:27:33;11.83;83.55
65864;SHT30;52639;51.180;20.460;2022-10-16T18:31:37;11.80;83.35
65864;SHT30;52639;51.180;20.460;2022-10-16T18:35:49;11.93;83.18
65864;SHT30;52639;51.180;20.460;2022-10-16T18:39:55;12.17;82.96
65864;SHT30;52639;51.180;20.460;2022-10-16T18:43:58;12.31;82.68
65864;SHT30;52639;51.180;20.460;2022-10-16T18:48:14;12.42;82.49
65864;SHT30;52639;51.180;20.460;2022-10-16T18:52:18;12.49;82.76
65864;SHT30;52639;51.180;20.460;2022-10-16T18:56:23;12.45;83.02
65864;SHT30;52639;51.180;20.460;2022-10-16T19:00:28;12.35;83.37
65864;SHT30;52639;51.180;20.460;2022-10-16T19:04:32;12.28;83.74
65864;SHT30;52639;51.180;20.460;2022-10-16T19:08:36;12.17;83.92
65864;SHT30;52639;51.180;20.460;2022-10-16T19:12:39;12.10;84.18
65864;SHT30;52639;51.180;20.460;2022-10-16T19:16:43;12.05;84.28
65864;SHT30;52639;51.180;20.460;2022-10-16T19:20:47;12.01;84.40
65864;SHT30;52639;51.180;20.460;2022-10-16T19:24:50;11.97;84.43
65864;SHT30;52639;51.180;20.460;2022-10-16T19:28:54;11.80;84.72
65864;SHT30;52639;51.180;20.460;2022-10-16T19:33:01;11.77;84.82
65864;SHT30;52639;51.180;20.460;2022-10-16T19:37:05;11.67;84.87
65864;SHT30;52639;51.180;20.460;2022-10-16T19:41:12;11.47;85.27
65864;SHT30;52639;51.180;20.460;2022-10-16T19:45:15;11.42;85.29
65864;SHT30;52639;51.180;20.460;2022-10-16T19:49:18;11.29;85.60
65864;SHT30;52639;51.180;20.460;2022-10-16T19:53:23;11.13;85.68
65864;SHT30;52639;51.180;20.460;2022-10-16T19:57:25;11.15;85.90
65864;SHT30;52639;51.180;20.460;2022-10-16T20:01:29;11.00;85.89
65864;SHT30;52639;51.180;20.460;2022-10-16T20:05:32;10.91;86.21
65864;SHT30;52639;51.180;20.460;2022-10-16T20:09:36;10.89;86.06
65864;SHT30;52639;51.180;20.460;2022-10-16T20:13:39;10.76;86.37
65864;SHT30;52639;51.180;20.460;2022-10-16T20:17:41;10.75;86.14
65864;SHT30;52639;51.180;20.460;2022-10-16T20:21:44;10.82;86.21
65864;SHT30;52639;51.180;20.460;2022-10-16T20:25:49;10.72;86.01
65864;SHT30;52639;51.180;20.460;2022-10-16T20:29:52;10.61;86.55
65864;SHT30;52639;51.180;20.460;2022-10-16T20:33:56;10.59;86.55
65864;SHT30;52639;51.180;20.460;2022-10-16T20:37:59;10.52;86.27
65864;SHT30;52639;51.180;20.460;2022-10-16T20:42:03;10.40;86.71
65864;SHT30;52639;51.180;20.460;2022-10-16T20:46:06;10.40;86.90
65864;SHT30;52639;51.180;20.460;2022-10-16T20:50:09;10.40;86.67
65864;SHT30;52639;51.180;20.460;2022-10-16T20:54:14;10.18;86.94
65864;SHT30;52639;51.180;20.460;2022-10-16T20:58:18;10.11;87.18
65864;SHT30;52639;51.180;20.460;2022-10-16T21:02:20;10.17;87.13
65864;SHT30;52639;51.180;20.460;2022-10-16T21:06:23;10.13;86.95
65864;SHT30;52639;51.180;20.460;2022-10-16T21:10:28;10.07;87.00
65864;SHT30;52639;51.180;20.460;2022-10-16T21:14:32;9.94;87.43
65864;SHT30;52639;51.180;20.460;2022-10-16T21:18:34;9.91;87.13
65864;SHT30;52639;51.180;20.460;2022-10-16T21:22:37;9.80;87.74
65864;SHT30;52639;51.180;20.460;2022-10-16T21:26:39;9.83;87.37
65864;SHT30;52639;51.180;20.460;2022-10-16T21:30:43;9.81;87.43
65864;SHT30;52639;51.180;20.460;2022-10-16T21:34:46;9.70;87.69
65864;SHT30;52639;51.180;20.460;2022-10-16T21:38:49;9.66;87.72
65864;SHT30;52639;51.180;20.460;2022-10-16T21:42:52;9.59;88.26
65864;SHT30;52639;51.180;20.460;2022-10-16T21:46:56;9.74;87.67
65864;SHT30;52639;51.180;20.460;2022-10-16T21:50:58;9.61;87.78
65864;SHT30;52639;51.180;20.460;2022-10-16T21:55:00;9.71;87.66
65864;SHT30;52639;51.180;20.460;2022-10-16T21:59:03;9.71;87.36
65864;SHT30;52639;51.180;20.460;2022-10-16T22:03:08;9.71;87.45
65864;SHT30;52639;51.180;20.460;2022-10-16T22:07:10;9.60;87.57
65864;SHT30;52639;51.180;20.460;2022-10-16T22:11:16;9.44;87.97
65864;SHT30;52639;51.180;20.460;2022-10-16T22:15:19;9.43;88.05
65864;SHT30;52639;51.180;20.460;2022-10-16T22:19:23;9.26;88.07
65864;SHT30;52639;51.180;20.460;2022-10-16T22:23:26;9.11;88.71
65864;SHT30;52639;51.180;20.460;2022-10-16T22:27:28;9.06;89.03
65864;SHT30;52639;51.180;20.460;2022-10-16T22:31:31;9.14;88.36
65864;SHT30;52639;51.180;20.460;2022-10-16T22:35:37;9.19;88.38
65864;SHT30;52639;51.180;20.460;2022-10-16T22:39:40;9.23;88.29
65864;SHT30;52639;51.180;20.460;2022-10-16T22:43:44;9.14;88.24
65864;SHT30;52639;51.180;20.460;2022-10-16T22:47:48;9.08;88.16
65864;SHT30;52639;51.180;20.460;2022-10-16T22:51:51;8.92;88.36
65864;SHT30;52639;51.180;20.460;2022-10-16T22:55:54;8.68;89.07
65864;SHT30;52639;51.180;20.460;2022-10-16T22:59:56;8.79;89.04
65864;SHT30;52639;51.180;20.460;2022-10-16T23:03:59;8.75;88.93
65864;SHT30;52639;51.180;20.460;2022-10-16T23:08:04;8.67;88.98
65864;SHT30;52639;51.180;20.460;2022-10-16T23:12:07;8.57;89.09
65864;SHT30;52639;51.180;20.460;2022-10-16T23:16:10;8.61;89.02
65864;SHT30;52639;51.180;20.460;2022-10-16T23:20:13;8.65;89.00
65864;SHT30;52639;51.180;20.460;2022-10-16T23:24:17;8.55;88.73
65864;SHT30;52639;51.180;20.460;2022-10-16T23:28:20;8.47;89.30
65864;SHT30;52639;51.180;20.460;2022-10-16T23:32:22;8.42;88.92
65864;SHT30;52639;51.180;20.460;2022-10-16T23:36:25;8.44;89.19
65864;SHT30;52639;51.180;20.460;2022-10-16T23:40:29;8.54;89.02
65864;SHT30;52639;51.180;20.460;2022-10-16T23:44:31;8.50;88.83
65864;SHT30;52639;51.180;20.460;2022-10-16T23:48:34;8.47;89.08
65864;SHT30;52639;51.180;20.460;2022-10-16T23:52:38;8.41;89.13
65864;SHT30;52639;51.180;20.460;2022-10-16T23:56:42;8.38;88.98
